createdAt,value
2019-03-15T00:01:52.642Z,22.52
2019-03-15T00:04:21.816Z,25.08
2019-03-15T00:06:51.026Z,23.87
2019-03-15T00:09:20.209Z,23.98
2019-03-15T00:11:49.396Z,20.23
2019-03-15T00:14:18.649Z,21.60
2019-03-15T00:16:47.841Z,25.15
2019-03-15T00:19:17.089Z,21.30
2019-03-15T00:21:46.369Z,21.05
2019-03-15T00:24:15.535Z,23.67
2019-03-15T00:26:44.735Z,22.55
2019-03-15T00:29:13.948Z,23.90
2019-03-15T00:31:43.184Z,21.85
2019-03-15T00:34:12.361Z,21.52
2019-03-15T00:36:41.544Z,23.45
2019-03-15T00:39:10.766Z,21.25
2019-03-15T00:41:40.024Z,23.65
2019-03-15T00:44:09.279Z,21.85
2019-03-15T00:46:38.995Z,21.57
2019-03-15T00:49:08.206Z,21.23
2019-03-15T00:51:37.373Z,21.77
2019-03-15T00:54:07.553Z,20.85
2019-03-15T00:56:36.727Z,21.20
2019-03-15T00:59:05.911Z,19.87
2019-03-15T01:01:35.185Z,22.80
2019-03-15T01:04:04.426Z,21.33
2019-03-15T01:06:33.709Z,19.87
2019-03-15T01:09:02.950Z,19.52
2019-03-15T01:11:32.225Z,24.02
2019-03-15T01:14:01.510Z,22.77
2019-03-15T01:16:30.674Z,23.45
2019-03-15T01:18:59.914Z,24.20
2019-03-15T01:21:29.148Z,24.20
2019-03-15T01:23:58.330Z,21.75
2019-03-15T01:26:27.584Z,22.00
2019-03-15T01:28:56.777Z,23.92
2019-03-15T01:31:26.074Z,21.05
2019-03-15T01:33:55.316Z,21.20
2019-03-15T01:36:24.559Z,24.25
2019-03-15T01:38:53.753Z,26.00
2019-03-15T01:41:23.018Z,21.15
2019-03-15T01:43:52.218Z,25.00
2019-03-15T01:46:21.443Z,26.35
2019-03-15T01:48:50.617Z,26.65
2019-03-15T01:51:19.856Z,26.95
2019-03-15T01:53:49.135Z,25.90
2019-03-15T01:56:18.690Z,25.27
2019-03-15T01:58:48.169Z,26.90
2019-03-15T02:01:17.341Z,25.85
2019-03-15T02:03:46.592Z,28.92
2019-03-15T02:06:15.975Z,25.50
2019-03-15T02:08:45.150Z,29.65
2019-03-15T02:11:14.396Z,24.67
2019-03-15T02:13:43.629Z,25.48
2019-03-15T02:16:12.902Z,23.60
2019-03-15T02:18:42.079Z,24.18
2019-03-15T02:21:11.351Z,24.00
2019-03-15T02:23:40.588Z,23.50
2019-03-15T02:26:09.832Z,23.98
2019-03-15T02:28:39.061Z,19.27
2019-03-15T02:31:08.301Z,27.22
2019-03-15T02:33:37.490Z,25.05
2019-03-15T02:36:06.702Z,23.95
2019-03-15T02:38:35.955Z,25.57
2019-03-15T02:41:05.453Z,27.50
2019-03-15T02:43:35.065Z,22.82
2019-03-15T02:46:04.252Z,27.65
2019-03-15T02:48:33.411Z,29.37
2019-03-15T02:51:02.644Z,25.55
2019-03-15T02:53:31.801Z,25.55
2019-03-15T02:56:00.992Z,27.40
2019-03-15T02:58:30.189Z,25.27
2019-03-15T03:00:59.381Z,25.55
2019-03-15T03:03:28.771Z,27.65
2019-03-15T03:05:57.980Z,32.20
2019-03-15T03:08:27.220Z,30.70
2019-03-15T03:10:56.437Z,31.73
2019-03-15T03:13:25.706Z,29.95
2019-03-15T03:15:54.968Z,33.38
2019-03-15T03:18:24.265Z,30.08
2019-03-15T03:20:53.516Z,26.95
2019-03-15T03:23:22.751Z,31.33
2019-03-15T03:25:52.028Z,29.50
2019-03-15T03:28:21.233Z,32.03
2019-03-15T03:30:50.420Z,30.52
2019-03-15T03:33:19.609Z,30.40
2019-03-15T03:35:48.849Z,29.80
2019-03-15T03:38:18.074Z,24.37
2019-03-15T03:40:56.287Z,25.12
2019-03-15T03:43:25.578Z,28.57
2019-03-15T03:45:54.746Z,29.20
2019-03-15T03:48:24.986Z,25.27
2019-03-15T03:50:54.249Z,26.87
2019-03-15T03:53:23.416Z,25.20
2019-03-15T03:55:52.583Z,28.05
2019-03-15T03:58:21.826Z,26.65
2019-03-15T04:00:51.063Z,22.50
2019-03-15T04:03:20.326Z,22.98
2019-03-15T04:05:49.547Z,26.37
2019-03-15T04:08:18.794Z,26.35
2019-03-15T04:10:48.038Z,28.35
2019-03-15T04:13:17.382Z,22.62
2019-03-15T04:15:46.651Z,22.82
2019-03-15T04:18:15.868Z,23.77
2019-03-15T04:20:45.045Z,24.25
2019-03-15T04:23:14.212Z,23.38
2019-03-15T04:25:43.413Z,23.77
2019-03-15T04:28:12.651Z,26.07
2019-03-15T04:30:41.928Z,22.15
2019-03-15T04:33:11.107Z,23.22
2019-03-15T04:35:40.407Z,23.05
2019-03-15T04:38:09.592Z,20.60
2019-03-15T04:40:38.771Z,22.05
2019-03-15T04:43:07.979Z,23.92
2019-03-15T04:45:37.250Z,22.50
2019-03-15T04:48:06.537Z,23.30
2019-03-15T04:50:35.804Z,22.50
2019-03-15T04:53:05.058Z,22.70
2019-03-15T04:55:34.222Z,20.30
2019-03-15T04:58:03.527Z,25.75
2019-03-15T05:00:34.229Z,19.65
2019-03-15T05:03:03.529Z,22.90
2019-03-15T05:05:32.703Z,18.98
2019-03-15T05:08:01.949Z,20.82
2019-03-15T05:10:31.306Z,21.40
2019-03-15T05:13:00.566Z,22.62
2019-03-15T05:15:29.745Z,17.48
2019-03-15T05:17:59.015Z,23.70
2019-03-15T05:20:28.344Z,19.05
2019-03-15T05:22:57.625Z,19.12
2019-03-15T05:25:29.734Z,17.87
2019-03-15T05:27:58.340Z,20.12
2019-03-15T05:30:28.188Z,21.82
2019-03-15T05:32:57.456Z,18.10
2019-03-15T05:35:26.752Z,19.90
2019-03-15T05:37:56.050Z,15.58
2019-03-15T05:40:25.373Z,19.12
2019-03-15T05:42:54.661Z,16.48
2019-03-15T05:45:23.907Z,18.82
2019-03-15T05:47:53.547Z,28.02
2019-03-15T05:50:22.755Z,22.00
2019-03-15T05:52:52.144Z,20.62
2019-03-15T05:55:21.519Z,15.75
2019-03-15T05:57:50.839Z,13.60
2019-03-15T06:00:20.095Z,17.92
2019-03-15T06:02:49.449Z,15.88
2019-03-15T06:05:18.829Z,16.97
2019-03-15T06:07:48.186Z,15.18
2019-03-15T06:10:17.515Z,14.68
2019-03-15T06:12:46.970Z,15.28
2019-03-15T06:15:16.250Z,11.25
2019-03-15T06:17:45.578Z,13.95
2019-03-15T06:20:15.049Z,14.03
2019-03-15T06:22:44.301Z,11.38
2019-03-15T06:25:13.990Z,12.33
2019-03-15T06:27:43.334Z,11.15
2019-03-15T06:30:15.710Z,10.70
2019-03-15T06:35:13.693Z,11.25
2019-03-15T06:37:42.943Z,9.95
2019-03-15T06:40:13.782Z,11.85
2019-03-15T06:42:43.544Z,11.05
2019-03-15T06:45:15.820Z,10.70
2019-03-15T06:47:45.765Z,9.43
2019-03-15T06:50:15.133Z,9.30
2019-03-15T06:52:44.442Z,11.25
2019-03-15T06:55:13.870Z,13.28
2019-03-15T06:57:43.064Z,9.78
2019-03-15T07:00:14.164Z,10.68
2019-03-15T07:02:43.576Z,12.78
2019-03-15T07:05:12.956Z,8.80
2019-03-15T07:07:42.294Z,14.15
2019-03-15T07:10:11.833Z,8.80
2019-03-15T07:12:41.094Z,9.70
2019-03-15T07:15:11.988Z,11.93
2019-03-15T07:17:41.857Z,8.05
2019-03-15T07:20:29.091Z,9.18
2019-03-15T07:22:58.404Z,9.58
2019-03-15T07:25:28.554Z,7.87
2019-03-15T07:27:57.817Z,10.72
2019-03-15T07:30:27.024Z,10.08
2019-03-15T07:32:56.588Z,9.65
2019-03-15T07:35:26.025Z,8.70
2019-03-15T07:37:55.397Z,10.23
2019-03-15T07:40:24.706Z,9.60
2019-03-15T07:42:54.112Z,7.25
2019-03-15T07:45:23.369Z,7.67
2019-03-15T07:47:52.641Z,9.15
2019-03-15T07:50:21.932Z,10.40
2019-03-15T07:52:51.322Z,8.25
2019-03-15T07:55:20.671Z,12.03
2019-03-15T07:57:50.081Z,9.08
2019-03-15T08:00:19.427Z,7.40
2019-03-15T08:02:48.753Z,8.65
2019-03-15T08:05:18.008Z,7.83
2019-03-15T08:07:47.297Z,10.82
2019-03-15T08:10:16.627Z,17.17
2019-03-15T08:12:49.337Z,10.18
2019-03-15T08:15:16.915Z,13.40
2019-03-15T08:17:46.308Z,13.32
2019-03-15T08:20:15.647Z,9.45
2019-03-15T08:22:44.989Z,7.75
2019-03-15T08:25:14.457Z,6.70
2019-03-15T08:27:43.779Z,9.08
2019-03-15T08:30:14.369Z,9.88
2019-03-15T08:32:44.196Z,9.08
2019-03-15T08:35:13.814Z,8.93
2019-03-15T08:37:42.970Z,11.55
2019-03-15T08:40:13.475Z,9.30
2019-03-15T08:42:42.712Z,10.15
2019-03-15T08:45:19.110Z,10.58
2019-03-15T08:47:48.377Z,7.22
2019-03-15T08:50:18.923Z,9.50
2019-03-15T08:52:48.343Z,6.95
2019-03-15T08:55:17.727Z,6.50
2019-03-15T08:57:47.209Z,9.48
2019-03-15T09:00:19.762Z,8.28
2019-03-15T09:02:49.023Z,8.40
2019-03-15T09:05:18.493Z,8.05
2019-03-15T09:07:47.926Z,8.33
2019-03-15T09:10:23.827Z,9.38
2019-03-15T09:12:50.383Z,7.47
2019-03-15T09:15:19.836Z,7.53
2019-03-15T09:17:49.081Z,6.22
2019-03-15T09:20:18.396Z,7.28
2019-03-15T09:22:47.660Z,6.60
2019-03-15T09:25:20.427Z,7.03
2019-03-15T09:27:48.821Z,6.40
2019-03-15T09:30:23.519Z,7.83
2019-03-15T09:32:49.399Z,8.50
2019-03-15T09:35:18.722Z,7.65
2019-03-15T09:37:48.068Z,6.58
2019-03-15T09:40:17.413Z,10.68
2019-03-15T09:42:46.833Z,11.28
2019-03-15T09:45:17.283Z,7.37
2019-03-15T09:47:46.578Z,8.20
2019-03-15T09:50:24.997Z,6.78
2019-03-15T09:52:47.706Z,8.28
2019-03-15T09:55:16.940Z,11.22
2019-03-15T09:57:46.213Z,8.50
2019-03-15T10:00:21.963Z,9.70
2019-03-15T10:02:51.355Z,7.70
2019-03-15T10:05:20.742Z,6.28
2019-03-15T10:07:50.067Z,6.45
2019-03-15T10:10:20.273Z,9.43
2019-03-15T10:12:49.534Z,5.50
2019-03-15T10:15:18.798Z,7.22
2019-03-15T10:17:48.018Z,5.62
2019-03-15T10:20:17.267Z,7.58
2019-03-15T10:23:04.222Z,7.30
2019-03-15T10:25:17.887Z,8.35
2019-03-15T10:27:47.168Z,7.33
2019-03-15T10:30:17.782Z,7.40
2019-03-15T10:32:47.102Z,7.33
2019-03-15T10:35:16.340Z,7.40
2019-03-15T10:37:45.686Z,6.20
2019-03-15T10:40:24.620Z,6.78
2019-03-15T10:42:55.548Z,7.42
2019-03-15T10:45:25.043Z,6.72
2019-03-15T10:47:54.368Z,8.98
2019-03-15T10:50:23.629Z,8.58
2019-03-15T10:52:53.933Z,8.03
2019-03-15T10:55:23.541Z,8.90
2019-03-15T10:57:52.844Z,8.63
2019-03-15T11:00:22.088Z,9.15
2019-03-15T11:02:51.456Z,8.78
2019-03-15T11:05:20.882Z,7.47
2019-03-15T11:07:50.399Z,9.03
2019-03-15T11:10:19.926Z,9.93
2019-03-15T11:12:49.522Z,5.92
2019-03-15T11:15:18.781Z,6.47
2019-03-15T11:17:48.071Z,8.75
2019-03-15T11:20:17.385Z,6.97
2019-03-15T11:22:46.786Z,7.83
2019-03-15T11:25:16.205Z,8.00
2019-03-15T11:27:45.603Z,6.87
2019-03-15T11:30:15.036Z,7.62
2019-03-15T11:32:44.333Z,7.65
2019-03-15T11:35:13.577Z,7.60
2019-03-15T11:37:42.995Z,10.65
2019-03-15T11:40:19.124Z,7.65
2019-03-15T11:42:48.271Z,7.50
2019-03-15T16:03:06.368Z,11.85
2019-03-15T16:05:35.616Z,15.48
2019-03-15T16:08:04.806Z,10.78
2019-03-15T16:10:34.147Z,11.10
2019-03-15T16:13:16.593Z,11.08
2019-03-15T16:15:34.394Z,13.53
2019-03-15T16:18:03.717Z,11.85
2019-03-15T16:20:32.981Z,13.25
2019-03-15T16:23:02.307Z,13.43
2019-03-15T16:25:31.542Z,11.97
2019-03-15T16:28:00.718Z,8.25
2019-03-15T16:30:29.898Z,14.15
2019-03-15T16:32:59.167Z,14.47
2019-03-15T16:35:28.401Z,8.70
2019-03-15T16:37:57.744Z,10.15
2019-03-15T16:40:26.957Z,8.03
2019-03-15T16:42:56.135Z,11.10
2019-03-15T16:45:32.775Z,13.28
2019-03-15T16:48:06.158Z,12.07
2019-03-15T16:50:35.328Z,12.60
2019-03-15T16:53:04.623Z,11.08
2019-03-15T16:55:33.811Z,9.23
2019-03-15T16:58:03.105Z,10.08
2019-03-15T17:00:32.292Z,12.85
2019-03-15T17:03:01.466Z,10.55
2019-03-15T17:05:30.661Z,12.15
2019-03-15T17:07:59.900Z,11.83
2019-03-15T17:10:29.150Z,14.33
2019-03-15T17:12:58.504Z,13.72
2019-03-15T17:15:29.303Z,15.18
2019-03-15T17:17:58.600Z,15.00
2019-03-15T17:20:27.842Z,11.33
2019-03-15T17:22:57.025Z,20.40
2019-03-15T17:25:26.224Z,30.05
2019-03-15T17:27:55.407Z,47.70
2019-03-15T17:30:24.667Z,16.50
2019-03-15T17:32:53.897Z,13.22
2019-03-15T17:35:23.143Z,15.13
2019-03-15T17:37:52.377Z,18.50
2019-03-15T17:40:21.996Z,15.60
2019-03-15T17:42:51.237Z,17.17
2019-03-15T17:45:20.547Z,22.15
2019-03-15T17:47:49.730Z,28.70
2019-03-15T17:50:26.970Z,25.12
2019-03-15T17:52:56.140Z,25.05
2019-03-15T17:55:25.310Z,23.18
2019-03-15T17:57:54.656Z,23.38
2019-03-15T18:00:47.837Z,22.87
2019-03-15T18:03:21.575Z,23.85
2019-03-15T18:05:48.612Z,21.37
2019-03-15T18:08:17.893Z,27.55
2019-03-15T18:10:47.143Z,23.85
2019-03-15T18:13:16.743Z,19.62
2019-03-15T18:15:45.999Z,24.43
2019-03-15T18:18:15.225Z,24.32
2019-03-15T18:20:44.437Z,37.10
2019-03-15T18:23:15.380Z,30.35
2019-03-15T18:25:44.563Z,26.17
2019-03-15T18:28:13.729Z,39.42
2019-03-15T18:30:43.153Z,30.52
2019-03-15T18:33:12.474Z,51.65
2019-03-15T18:35:41.831Z,27.02
2019-03-15T18:38:11.663Z,24.55
2019-03-15T18:40:40.969Z,28.27
2019-03-15T18:43:10.215Z,31.77
2019-03-15T18:45:39.529Z,28.20
2019-03-15T18:48:08.774Z,29.90
2019-03-15T18:50:37.954Z,23.57
2019-03-15T18:53:07.244Z,24.50
2019-03-15T18:55:36.663Z,25.72
2019-03-15T18:58:05.912Z,21.87
2019-03-15T19:00:35.159Z,20.45
2019-03-15T19:03:04.502Z,25.50
2019-03-15T19:05:33.664Z,21.25
2019-03-15T19:08:03.455Z,31.90
2019-03-15T19:10:32.708Z,23.07
2019-03-15T19:13:01.943Z,18.77
2019-03-15T19:15:31.483Z,17.42
2019-03-15T19:18:00.716Z,23.62
2019-03-15T19:20:29.927Z,23.57
2019-03-15T19:22:59.618Z,21.30
2019-03-15T19:25:28.894Z,18.75
2019-03-15T19:27:58.127Z,21.50
2019-03-15T19:30:27.410Z,22.75
2019-03-15T19:32:56.701Z,23.25
2019-03-15T19:35:25.955Z,21.15
2019-03-15T19:37:55.260Z,18.92
2019-03-15T19:40:24.415Z,19.17
2019-03-15T19:42:53.646Z,25.08
2019-03-15T19:45:22.917Z,26.07
2019-03-15T19:47:52.103Z,21.50
2019-03-15T19:50:21.805Z,27.17
2019-03-15T19:52:51.108Z,21.70
2019-03-15T19:55:21.396Z,21.30
2019-03-15T19:57:50.679Z,27.82
2019-03-15T20:00:23.432Z,22.87
2019-03-15T20:02:52.770Z,26.65
2019-03-15T20:05:22.145Z,26.00
2019-03-15T20:07:51.573Z,23.25
2019-03-15T20:10:21.020Z,25.05
2019-03-15T20:12:50.258Z,21.60
2019-03-15T20:15:19.580Z,26.65
2019-03-15T20:17:48.761Z,28.83
2019-03-15T20:20:19.157Z,27.75
2019-03-15T20:22:48.367Z,25.48
2019-03-15T20:25:18.152Z,25.60
2019-03-15T20:27:47.795Z,25.27
2019-03-15T20:30:26.560Z,33.88
2019-03-15T20:32:55.628Z,23.02
2019-03-15T20:35:24.864Z,32.38
2019-03-15T20:37:54.114Z,25.30
2019-03-15T20:40:23.385Z,22.20
2019-03-15T20:42:52.550Z,20.20
2019-03-15T20:45:26.583Z,26.07
2019-03-15T20:47:55.880Z,29.82
2019-03-15T20:50:25.045Z,25.97
2019-03-15T20:53:07.255Z,29.18
2019-03-15T20:55:28.413Z,27.32
2019-03-15T20:57:57.924Z,24.45
2019-03-15T21:00:35.462Z,29.85
2019-03-15T21:02:58.347Z,23.57
2019-03-15T21:05:27.588Z,23.45
2019-03-15T21:07:56.767Z,23.92
2019-03-15T21:10:25.971Z,27.45
2019-03-15T21:12:55.275Z,28.85
2019-03-15T21:15:24.522Z,24.85
2019-03-15T21:17:53.687Z,25.55
2019-03-15T21:20:23.172Z,30.12
2019-03-15T21:22:52.503Z,23.10
2019-03-15T21:25:21.715Z,25.57
2019-03-15T21:27:54.087Z,24.12
2019-03-15T21:30:23.527Z,26.97
2019-03-15T21:32:52.843Z,26.87
2019-03-15T21:35:22.068Z,24.35
2019-03-15T21:37:51.701Z,28.75
2019-03-15T21:40:22.019Z,24.40
2019-03-15T21:42:51.237Z,25.40
2019-03-15T21:45:20.479Z,24.18
2019-03-15T21:47:49.721Z,29.42
2019-03-15T21:50:20.420Z,26.93
2019-03-15T21:52:49.597Z,22.42
2019-03-15T21:55:18.885Z,24.63
2019-03-15T21:57:48.068Z,25.97
2019-03-15T22:00:18.303Z,25.95
2019-03-15T22:02:47.854Z,30.82
2019-03-15T22:05:17.138Z,25.05
2019-03-15T22:07:46.313Z,30.48
2019-03-15T22:10:16.568Z,35.80
2019-03-15T22:12:45.820Z,23.50
2019-03-15T22:15:15.063Z,29.32
2019-03-15T22:17:44.364Z,24.70
2019-03-15T22:20:15.938Z,26.95
2019-03-15T22:22:45.301Z,28.35
2019-03-15T22:25:14.582Z,27.62
2019-03-15T22:27:43.755Z,29.65
2019-03-15T22:30:16.711Z,32.30
2019-03-15T22:32:45.890Z,32.90
2019-03-15T22:35:15.131Z,27.60
2019-03-15T22:37:44.337Z,36.00
2019-03-15T22:40:14.652Z,36.33
2019-03-15T22:42:44.329Z,36.38
2019-03-15T22:45:14.345Z,32.58
2019-03-15T22:47:43.588Z,31.82
2019-03-15T22:50:16.495Z,26.80
2019-03-15T22:52:45.674Z,30.30
2019-03-15T22:55:14.934Z,33.73
2019-03-15T22:57:44.184Z,34.88
2019-03-15T23:00:18.060Z,30.40
2019-03-15T23:02:47.362Z,33.95
2019-03-15T23:05:16.569Z,30.30
2019-03-15T23:07:45.763Z,38.98
2019-03-15T23:10:15.002Z,33.18
2019-03-15T23:12:44.287Z,32.53
2019-03-15T23:15:13.485Z,38.33
2019-03-15T23:17:42.721Z,34.08
2019-03-15T23:20:14.053Z,38.13
2019-03-15T23:22:43.306Z,34.88
2019-03-15T23:25:12.553Z,38.53
2019-03-15T23:27:41.741Z,36.15
2019-03-15T23:30:14.220Z,35.40
2019-03-15T23:32:43.394Z,36.35
2019-03-15T23:35:12.631Z,36.77
2019-03-15T23:37:41.931Z,37.25
2019-03-15T23:40:12.519Z,38.02
2019-03-15T23:42:41.693Z,35.75
2019-03-15T23:45:11.266Z,32.35
2019-03-15T23:47:40.507Z,30.20
2019-03-15T23:50:11.675Z,35.40
2019-03-15T23:52:41.001Z,32.08
2019-03-15T23:55:10.153Z,30.92
2019-03-15T23:57:39.357Z,29.85
